Sanbeimer, Louisiana
Current Conditions -  °F | °C
As of 5:53 PM on Monday 24 Nov 2014 (Local Time) from KTVR Reporting Station
Clear Clear  
Wind Chill: 42°   Ceiling: Unl
Heat Index: 44°   Visibility: 10mi
Dew Point: 37°   Wind: 5mph
Humidity: 76%   Direction: 320°NW
Pressure: 30.04"   Gusts: NA
Location:  32.5752°N, 91.2825°W
Report Text: KTVR 242353Z AUTO 32004KT 10SM CLR 07/03 A3004 RMK AO2 SLP177 T00670028 10167 20067 53017
Loading
Personal Weather Stations






























Interactive Weather Map New forecast layout! Learn more

10-Day Weather Forecast

Advertisements
Track Severe Weather on mobile